createdAt,value
2023-02-16T00:00:57.094Z,25.23
2023-02-16T00:03:25.111Z,26.23
2023-02-16T00:05:53.182Z,28.17
2023-02-16T00:08:21.194Z,28.37
2023-02-16T00:11:04.761Z,27.83
2023-02-16T00:13:48.951Z,26.37
2023-02-16T00:16:17.796Z,26.97
2023-02-16T00:18:46.271Z,26.03
2023-02-16T00:21:14.378Z,26.43
2023-02-16T00:23:42.444Z,25.70
2023-02-16T00:26:15.625Z,30.50
2023-02-16T00:28:44.064Z,29.03
2023-02-16T00:31:17.023Z,25.17
2023-02-16T00:33:45.043Z,27.67
2023-02-16T00:36:13.028Z,25.57
2023-02-16T00:38:40.976Z,26.40
2023-02-16T00:41:32.209Z,20.93
2023-02-16T00:44:01.608Z,26.73
2023-02-16T00:46:29.659Z,23.53
2023-02-16T00:48:57.618Z,26.07
2023-02-16T00:51:26.566Z,26.43
2023-02-16T00:53:54.732Z,27.30
2023-02-16T00:56:22.918Z,27.63
2023-02-16T00:58:52.231Z,27.03
2023-02-16T01:01:23.082Z,26.70
2023-02-16T01:03:51.136Z,30.10
2023-02-16T01:06:36.415Z,26.97
2023-02-16T01:09:30.089Z,25.47
2023-02-16T01:11:58.280Z,23.97
2023-02-16T01:14:26.442Z,25.77
2023-02-16T01:16:55.808Z,25.50
2023-02-16T01:19:23.712Z,25.10
2023-02-16T01:21:51.701Z,21.43
2023-02-16T01:24:19.823Z,24.10
2023-02-16T01:26:49.132Z,24.67
2023-02-16T01:29:18.092Z,23.50
2023-02-16T01:31:46.429Z,23.87
2023-02-16T01:34:15.972Z,22.67
2023-02-16T01:36:45.123Z,22.30
2023-02-16T01:39:13.642Z,26.53
2023-02-16T01:41:55.899Z,24.93
2023-02-16T01:44:25.490Z,25.67
2023-02-16T01:46:56.382Z,21.87
2023-02-16T01:49:26.236Z,25.20
2023-02-16T01:51:57.761Z,24.70
2023-02-16T01:54:43.444Z,24.40
2023-02-16T01:57:15.232Z,25.53
2023-02-16T02:00:04.120Z,25.40
2023-02-16T02:02:35.719Z,20.53
2023-02-16T02:05:25.961Z,26.90
2023-02-16T02:07:57.407Z,23.87
2023-02-16T02:10:27.327Z,22.77
2023-02-16T02:12:57.751Z,23.07
2023-02-16T02:15:28.294Z,23.93
2023-02-16T02:17:56.210Z,26.03
2023-02-16T02:20:49.877Z,23.60
2023-02-16T02:23:34.271Z,22.80
2023-02-16T02:26:19.013Z,23.50
2023-02-16T02:28:53.278Z,26.20
2023-02-16T02:31:26.336Z,21.53
2023-02-16T02:33:58.813Z,21.93
2023-02-16T02:36:30.244Z,25.93
2023-02-16T02:39:02.925Z,27.20
2023-02-16T02:41:47.432Z,26.93
2023-02-16T02:44:22.191Z,22.93
2023-02-16T02:46:50.239Z,22.67
2023-02-16T02:49:18.191Z,25.03
2023-02-16T02:51:46.170Z,24.30
2023-02-16T02:54:33.260Z,23.87
2023-02-16T02:57:19.288Z,23.60
2023-02-16T03:00:07.592Z,26.33
2023-02-16T03:02:37.253Z,27.60
2023-02-16T03:05:06.596Z,24.30
2023-02-16T03:07:50.166Z,25.03
2023-02-16T03:10:36.702Z,24.13
2023-02-16T03:13:05.684Z,23.63
2023-02-16T03:15:36.223Z,26.97
2023-02-16T03:18:21.972Z,22.60
2023-02-16T03:21:07.569Z,22.47
2023-02-16T03:23:52.968Z,20.73
2023-02-16T03:26:38.587Z,25.10
2023-02-16T03:29:22.818Z,24.53
2023-02-16T03:31:52.978Z,24.23
2023-02-16T03:34:21.599Z,24.40
2023-02-16T03:36:50.615Z,27.23
2023-02-16T03:39:19.259Z,24.50
2023-02-16T03:41:49.275Z,20.20
2023-02-16T03:44:17.417Z,20.33
2023-02-16T03:46:45.813Z,24.13
2023-02-16T03:49:15.415Z,23.23
2023-02-16T03:51:43.497Z,29.30
2023-02-16T03:54:11.514Z,19.73
2023-02-16T03:56:39.696Z,22.67
2023-02-16T03:59:07.708Z,23.17
2023-02-16T04:01:35.897Z,23.53
2023-02-16T04:04:04.187Z,23.10
2023-02-16T04:06:33.691Z,29.30
2023-02-16T04:09:02.022Z,25.23
2023-02-16T04:11:47.460Z,24.13
2023-02-16T04:14:15.463Z,27.00
2023-02-16T04:16:43.464Z,25.20
2023-02-16T04:19:11.431Z,24.30
2023-02-16T04:21:40.858Z,26.73
2023-02-16T04:24:09.013Z,25.47
2023-02-16T04:26:37.005Z,28.07
2023-02-16T04:29:04.973Z,23.00
2023-02-16T04:31:33.126Z,24.13
2023-02-16T04:34:01.151Z,24.83
2023-02-16T04:36:29.120Z,26.33
2023-02-16T04:38:58.539Z,25.73
2023-02-16T04:41:26.933Z,28.57
2023-02-16T04:43:54.882Z,27.40
2023-02-16T04:46:22.948Z,27.47
2023-02-16T04:48:50.949Z,30.20
2023-02-16T04:51:19.398Z,25.13
2023-02-16T04:53:47.336Z,25.80
2023-02-16T04:56:16.836Z,27.33
2023-02-16T04:58:44.783Z,25.60
2023-02-16T05:01:20.235Z,24.40
2023-02-16T05:03:48.530Z,22.67
2023-02-16T05:06:16.500Z,28.63
2023-02-16T05:08:45.037Z,26.23
2023-02-16T05:11:30.428Z,28.57
2023-02-16T05:14:17.502Z,26.70
2023-02-16T05:16:45.777Z,27.67
2023-02-16T05:19:14.154Z,24.13
2023-02-16T05:21:42.096Z,24.80
2023-02-16T05:24:11.613Z,27.47
2023-02-16T05:26:40.512Z,25.83
2023-02-16T05:29:09.874Z,23.03
2023-02-16T05:31:38.824Z,26.97
2023-02-16T05:34:06.969Z,26.03
2023-02-16T05:36:34.893Z,26.40
2023-02-16T05:39:02.846Z,25.00
2023-02-16T05:41:30.805Z,26.07
2023-02-16T05:43:59.670Z,27.33
2023-02-16T05:46:29.823Z,25.90
2023-02-16T05:48:57.806Z,27.27
2023-02-16T05:51:25.714Z,28.97
2023-02-16T05:53:53.677Z,32.43
2023-02-16T05:56:21.948Z,25.83
2023-02-16T05:58:50.310Z,26.73
2023-02-16T06:01:18.485Z,26.37
2023-02-16T06:03:48.239Z,21.70
2023-02-16T06:06:16.362Z,21.47
2023-02-16T06:08:44.302Z,24.87
2023-02-16T06:11:32.547Z,24.43
2023-02-16T06:14:01.844Z,28.37
2023-02-16T06:16:30.150Z,20.57
2023-02-16T06:18:59.607Z,25.27
2023-02-16T06:21:27.966Z,23.23
2023-02-16T06:23:56.131Z,26.43
2023-02-16T06:26:24.236Z,23.67
2023-02-16T06:28:52.201Z,26.30
2023-02-16T06:31:20.663Z,26.43
2023-02-16T06:33:49.038Z,23.10
2023-02-16T06:36:19.133Z,26.60
2023-02-16T06:38:49.590Z,23.73
2023-02-16T06:41:31.838Z,26.53
2023-02-16T06:44:00.437Z,27.67
2023-02-16T06:46:28.884Z,25.07
2023-02-16T06:48:57.228Z,27.40
2023-02-16T06:51:26.953Z,24.60
2023-02-16T06:53:54.978Z,23.50
2023-02-16T06:56:23.086Z,22.93
2023-02-16T06:58:51.310Z,32.23
2023-02-16T07:01:23.505Z,28.70
2023-02-16T07:03:51.911Z,26.50
2023-02-16T07:06:19.893Z,27.27
2023-02-16T07:08:49.280Z,26.67
2023-02-16T07:11:18.077Z,30.13
2023-02-16T07:13:46.050Z,30.63
2023-02-16T07:16:14.507Z,34.03
2023-02-16T07:18:45.018Z,34.23
2023-02-16T07:21:13.145Z,28.30
2023-02-16T07:23:41.092Z,28.80
2023-02-16T07:26:10.938Z,27.03
2023-02-16T07:28:39.067Z,31.70
2023-02-16T07:31:09.504Z,34.00
2023-02-16T07:33:37.725Z,28.47
2023-02-16T07:36:06.061Z,31.93
2023-02-16T07:38:34.041Z,29.57
2023-02-16T07:41:02.478Z,32.20
2023-02-16T07:43:32.150Z,27.30
2023-02-16T07:46:00.193Z,32.87
2023-02-16T07:48:28.462Z,25.83
2023-02-16T07:50:56.427Z,32.87
2023-02-16T07:53:24.369Z,33.90
2023-02-16T07:55:52.408Z,26.13
2023-02-16T07:58:28.411Z,28.57
2023-02-16T08:00:58.611Z,29.93
2023-02-16T08:03:26.760Z,30.03
2023-02-16T08:05:54.748Z,44.77
2023-02-16T08:08:22.791Z,33.63
2023-02-16T08:10:50.797Z,29.73
2023-02-16T08:13:18.741Z,28.73
2023-02-16T08:15:46.974Z,31.17
2023-02-16T08:18:16.567Z,29.77
2023-02-16T08:21:02.651Z,36.10
2023-02-16T08:23:31.782Z,31.77
2023-02-16T08:26:00.257Z,34.23
2023-02-16T08:28:29.664Z,32.40
2023-02-16T08:30:57.875Z,30.43
2023-02-16T08:33:27.280Z,33.63
2023-02-16T08:35:55.235Z,29.80
2023-02-16T08:38:23.197Z,27.43
2023-02-16T08:40:51.622Z,30.50
2023-02-16T08:43:19.678Z,30.10
2023-02-16T08:45:47.947Z,32.93
2023-02-16T08:48:16.938Z,27.20
2023-02-16T08:50:53.786Z,24.97
2023-02-16T08:53:23.396Z,26.33
2023-02-16T08:55:55.974Z,24.87
2023-02-16T08:58:24.558Z,27.10
2023-02-16T09:00:52.595Z,25.67
2023-02-16T09:03:20.930Z,27.70
2023-02-16T09:05:50.759Z,26.27
2023-02-16T09:08:18.757Z,27.87
2023-02-16T09:10:46.993Z,24.03
2023-02-16T09:13:16.354Z,22.17
2023-02-16T09:15:44.522Z,24.67
2023-02-16T09:18:13.002Z,27.43
2023-02-16T09:20:41.966Z,35.63
2023-02-16T09:23:13.091Z,29.27
2023-02-16T09:25:42.119Z,27.30
2023-02-16T09:28:11.881Z,33.70
2023-02-16T09:30:40.404Z,26.93
2023-02-16T09:33:08.575Z,25.30
2023-02-16T09:35:39.756Z,27.80
2023-02-16T09:38:11.569Z,31.10
2023-02-16T09:40:43.232Z,25.27
2023-02-16T09:43:17.938Z,27.33
2023-02-16T09:45:49.250Z,31.50
2023-02-16T09:48:23.331Z,31.83
2023-02-16T09:50:54.939Z,24.93
2023-02-16T09:53:24.586Z,29.10
2023-02-16T09:55:59.766Z,29.97
2023-02-16T09:58:32.968Z,23.13
2023-02-16T10:01:05.861Z,28.13
2023-02-16T10:03:40.468Z,26.27
2023-02-16T10:06:19.750Z,26.87
2023-02-16T10:08:50.799Z,26.97
2023-02-16T10:11:45.847Z,23.83
2023-02-16T10:14:24.871Z,25.70
2023-02-16T10:16:57.040Z,29.03
2023-02-16T10:19:27.544Z,24.07
2023-02-16T10:21:58.010Z,40.67
2023-02-16T10:24:27.852Z,71.37
2023-02-16T10:27:02.860Z,27.90
2023-02-16T10:29:31.323Z,26.60
2023-02-16T10:32:05.017Z,37.87
2023-02-16T10:34:38.325Z,27.07
2023-02-16T10:37:16.796Z,26.50
2023-02-16T10:39:47.389Z,35.03
2023-02-16T10:42:21.010Z,30.33
2023-02-16T10:44:50.513Z,23.60
2023-02-16T10:47:24.856Z,20.77
2023-02-16T10:49:53.337Z,20.40
2023-02-16T10:52:21.766Z,22.50
2023-02-16T10:54:49.976Z,21.53
2023-02-16T10:57:25.444Z,20.70
2023-02-16T10:59:54.637Z,20.70
2023-02-16T11:02:25.569Z,19.10
2023-02-16T11:04:54.510Z,19.37
2023-02-16T11:07:23.558Z,20.73
2023-02-16T11:09:53.269Z,21.47
2023-02-16T11:12:28.694Z,18.43
2023-02-16T11:14:58.715Z,17.60
2023-02-16T11:17:28.013Z,17.83
2023-02-16T11:20:00.057Z,21.03
2023-02-16T11:22:31.531Z,23.50
2023-02-16T11:25:15.401Z,21.80
2023-02-16T11:27:51.205Z,19.33
2023-02-16T11:30:22.833Z,17.23
2023-02-16T11:32:52.009Z,20.93
2023-02-16T11:35:20.415Z,15.57
2023-02-16T11:37:48.548Z,19.90
2023-02-16T11:40:21.097Z,19.50
2023-02-16T11:42:51.998Z,17.60
2023-02-16T11:45:25.966Z,20.00
2023-02-16T11:47:54.936Z,21.80
2023-02-16T11:50:26.040Z,15.77
2023-02-16T11:52:55.253Z,17.17
2023-02-16T11:55:27.143Z,15.97
2023-02-16T11:57:57.337Z,14.87
2023-02-16T12:00:26.930Z,16.30
2023-02-16T12:03:15.954Z,16.97
2023-02-16T12:05:53.173Z,16.60
2023-02-16T12:08:35.861Z,13.27
2023-02-16T12:11:11.165Z,15.90
2023-02-16T12:13:45.248Z,16.03
2023-02-16T12:16:19.983Z,14.87
2023-02-16T12:18:52.450Z,18.10
2023-02-16T12:21:24.160Z,13.70
2023-02-16T12:23:57.045Z,16.00
2023-02-16T12:26:34.693Z,12.33
2023-02-16T12:29:11.320Z,14.43
2023-02-16T12:31:48.791Z,14.07
2023-02-16T12:34:22.772Z,14.23
2023-02-16T12:36:58.675Z,14.43
2023-02-16T12:39:31.304Z,15.63
2023-02-16T12:42:06.374Z,16.87
2023-02-16T12:44:37.594Z,14.30
2023-02-16T12:47:08.340Z,14.87
2023-02-16T12:49:43.946Z,13.63
2023-02-16T12:52:16.523Z,14.07
2023-02-16T12:54:46.549Z,12.47
2023-02-16T12:57:16.292Z,13.50
2023-02-16T12:59:49.523Z,15.07
2023-02-16T13:02:19.671Z,13.83
2023-02-16T13:04:50.469Z,18.97
2023-02-16T13:07:23.029Z,11.87
2023-02-16T13:09:53.705Z,13.57
2023-02-16T13:12:27.525Z,12.87
2023-02-16T13:15:02.350Z,14.00
2023-02-16T13:17:33.365Z,14.13
2023-02-16T13:20:03.355Z,14.03
2023-02-16T13:22:53.153Z,15.97
2023-02-16T13:25:35.326Z,20.47
2023-02-16T13:28:08.997Z,14.23
2023-02-16T13:30:56.479Z,9.97
2023-02-16T13:33:41.048Z,14.20
2023-02-16T13:36:16.318Z,13.00
2023-02-16T13:38:56.076Z,12.57
2023-02-16T13:41:36.547Z,17.77
2023-02-16T13:44:04.913Z,16.13
2023-02-16T13:46:35.590Z,12.97
2023-02-16T13:49:03.828Z,21.23
2023-02-16T13:51:41.862Z,11.83
2023-02-16T13:54:23.266Z,18.20
2023-02-16T13:56:51.665Z,12.97
2023-02-16T13:59:34.376Z,11.90
2023-02-16T14:02:03.957Z,19.30
2023-02-16T14:04:52.698Z,17.10
2023-02-16T14:07:32.358Z,14.57
2023-02-16T14:10:00.318Z,13.67
2023-02-16T14:12:31.475Z,15.63
2023-02-16T14:15:05.092Z,12.50
2023-02-16T14:17:35.511Z,11.57
2023-02-16T14:20:05.415Z,14.80
2023-02-16T14:22:35.939Z,11.70
2023-02-16T14:25:05.466Z,11.73
2023-02-16T14:27:47.166Z,20.27
2023-02-16T14:30:21.749Z,19.57
2023-02-16T14:32:57.715Z,13.47
2023-02-16T14:35:28.327Z,15.20
2023-02-16T14:37:58.151Z,15.13
2023-02-16T14:40:41.343Z,15.80
2023-02-16T14:43:16.973Z,11.27
2023-02-16T14:46:00.058Z,16.13
2023-02-16T14:48:36.002Z,15.07
2023-02-16T14:51:15.640Z,12.87
2023-02-16T14:54:01.473Z,18.07
2023-02-16T14:56:38.472Z,13.30
2023-02-16T14:59:08.083Z,11.97
2023-02-16T15:01:40.806Z,15.67
2023-02-16T15:04:12.286Z,11.40
2023-02-16T15:06:42.849Z,13.90
2023-02-16T15:09:15.995Z,28.83
2023-02-16T15:12:03.061Z,11.77
2023-02-16T15:14:32.691Z,16.33
2023-02-16T15:17:00.710Z,13.20
2023-02-16T15:19:32.542Z,13.93
2023-02-16T15:22:10.537Z,16.73
2023-02-16T15:24:38.554Z,17.43
2023-02-16T15:27:06.578Z,17.23
2023-02-16T15:29:34.500Z,14.27
2023-02-16T15:32:02.532Z,12.50
2023-02-16T15:34:34.932Z,12.77
2023-02-16T15:37:03.905Z,17.70
2023-02-16T15:39:43.605Z,20.43
2023-02-16T15:42:22.413Z,13.00
2023-02-16T15:44:50.790Z,15.63
2023-02-16T15:47:22.751Z,9.10
2023-02-16T15:49:52.721Z,8.00
2023-02-16T15:52:22.826Z,6.83
2023-02-16T15:54:51.266Z,11.60
2023-02-16T15:57:21.751Z,8.77
2023-02-16T15:59:50.476Z,6.70
2023-02-16T16:02:19.596Z,6.23
2023-02-16T16:04:48.548Z,7.70
2023-02-16T16:07:20.100Z,11.33
2023-02-16T16:09:48.433Z,5.67
2023-02-16T16:12:18.730Z,7.60
2023-02-16T16:14:50.788Z,11.53
2023-02-16T16:17:20.905Z,12.77
2023-02-16T16:19:48.961Z,14.20
2023-02-16T16:22:30.496Z,8.03
2023-02-16T16:24:58.473Z,10.60
2023-02-16T16:27:30.920Z,8.97
2023-02-16T16:30:11.496Z,9.63
2023-02-16T16:32:39.522Z,9.83
2023-02-16T16:35:19.923Z,9.00
2023-02-16T16:37:50.633Z,9.87
2023-02-16T16:40:23.519Z,12.73
2023-02-16T16:43:07.124Z,10.50
2023-02-16T16:45:36.414Z,13.13
2023-02-16T16:48:10.189Z,7.67
2023-02-16T16:50:39.800Z,11.80
2023-02-16T16:53:26.436Z,14.67
2023-02-16T16:55:55.796Z,9.47
2023-02-16T16:58:23.770Z,10.13
2023-02-16T17:00:51.896Z,8.30
2023-02-16T17:03:20.583Z,17.37
2023-02-16T17:05:48.723Z,18.03
2023-02-16T17:08:16.646Z,11.50
2023-02-16T17:10:44.912Z,9.07
2023-02-16T17:13:16.771Z,11.53
2023-02-16T17:15:46.260Z,12.10
2023-02-16T17:18:16.096Z,11.20
2023-02-16T17:20:44.376Z,9.40
2023-02-16T17:23:12.868Z,8.97
2023-02-16T17:25:40.877Z,8.63
2023-02-16T17:28:09.719Z,9.13
2023-02-16T17:30:39.406Z,10.27
2023-02-16T17:33:08.302Z,10.73
2023-02-16T17:35:36.753Z,10.07
2023-02-16T17:38:08.006Z,9.37
2023-02-16T17:40:35.976Z,8.37
2023-02-16T17:43:04.149Z,10.27
2023-02-16T17:45:32.223Z,7.60
2023-02-16T17:48:01.715Z,10.23
2023-02-16T17:50:30.461Z,28.13
2023-02-16T17:52:58.541Z,14.20
2023-02-16T17:55:26.577Z,16.30
2023-02-16T17:57:55.922Z,12.63
2023-02-16T18:00:23.993Z,10.70
2023-02-16T18:02:51.932Z,10.97
2023-02-16T18:05:21.367Z,14.13
2023-02-16T18:07:49.280Z,17.10
2023-02-16T18:10:18.354Z,14.30
2023-02-16T18:12:46.342Z,10.43
2023-02-16T18:15:14.293Z,10.43
2023-02-16T18:17:42.227Z,14.70
2023-02-16T18:20:10.564Z,18.87
2023-02-16T18:22:39.964Z,14.73
2023-02-16T18:25:08.130Z,15.97
2023-02-16T18:27:36.127Z,13.90
2023-02-16T18:30:04.357Z,13.10
2023-02-16T18:32:32.402Z,20.67
2023-02-16T18:35:00.389Z,16.17
2023-02-16T18:37:28.440Z,13.00
2023-02-16T18:39:57.827Z,12.97
2023-02-16T18:42:25.855Z,11.87
2023-02-16T18:44:53.851Z,11.33
2023-02-16T18:47:22.026Z,14.83
2023-02-16T18:49:50.708Z,12.40
2023-02-16T18:52:18.818Z,19.87
2023-02-16T18:54:47.048Z,20.93
2023-02-16T18:57:16.610Z,17.70
2023-02-16T18:59:44.614Z,32.60
2023-02-16T19:02:12.869Z,18.73
2023-02-16T19:04:40.939Z,15.57
2023-02-16T19:07:08.982Z,17.37
2023-02-16T19:09:36.957Z,14.37
2023-02-16T19:12:05.280Z,14.93
2023-02-16T19:14:34.691Z,12.20
2023-02-16T19:17:02.631Z,16.23
2023-02-16T19:19:33.293Z,15.10
2023-02-16T19:22:01.267Z,19.53
2023-02-16T19:24:29.189Z,15.33
2023-02-16T19:26:57.187Z,15.97
2023-02-16T19:29:25.197Z,15.23
2023-02-16T19:31:54.729Z,15.07
2023-02-16T19:34:22.804Z,16.23
2023-02-16T19:36:50.779Z,17.40
2023-02-16T19:39:18.756Z,21.40
2023-02-16T19:41:46.705Z,15.17
2023-02-16T19:44:15.380Z,21.07
2023-02-16T19:46:44.079Z,13.33
2023-02-16T19:49:15.305Z,18.90
2023-02-16T19:51:44.007Z,17.20
2023-02-16T19:54:11.977Z,20.27
2023-02-16T19:56:40.798Z,17.27
2023-02-16T19:59:09.216Z,15.53
2023-02-16T20:01:37.175Z,17.57
2023-02-16T20:04:05.352Z,19.00
2023-02-16T20:06:37.311Z,15.80
2023-02-16T20:09:05.480Z,19.17
2023-02-16T20:11:33.856Z,21.07
2023-02-16T20:14:02.280Z,20.87
2023-02-16T20:16:30.641Z,22.67
2023-02-16T20:18:59.016Z,18.70
2023-02-16T20:21:27.801Z,20.07
2023-02-16T20:23:58.193Z,23.80
2023-02-16T20:26:27.012Z,20.47
2023-02-16T20:28:54.993Z,23.03
2023-02-16T20:31:24.291Z,21.23
2023-02-16T20:33:52.368Z,21.70
2023-02-16T20:36:20.378Z,19.23
2023-02-16T20:38:48.319Z,19.43
2023-02-16T20:41:18.000Z,27.17
2023-02-16T20:43:46.100Z,17.33
2023-02-16T20:46:14.477Z,19.97
2023-02-16T20:48:42.883Z,18.93
2023-02-16T20:51:12.127Z,19.57
2023-02-16T20:53:40.143Z,19.67
2023-02-16T20:56:09.872Z,19.80
2023-02-16T20:58:39.456Z,16.47
2023-02-16T21:01:12.073Z,16.40
2023-02-16T21:03:40.272Z,17.10
2023-02-16T21:06:08.291Z,18.17
2023-02-16T21:08:36.238Z,20.10
2023-02-16T21:11:04.276Z,20.10
2023-02-16T21:13:33.092Z,19.63
2023-02-16T21:16:02.541Z,23.73
2023-02-16T21:18:30.536Z,14.87
2023-02-16T21:21:00.230Z,19.40
2023-02-16T21:23:28.310Z,19.50
2023-02-16T21:25:58.926Z,18.60
2023-02-16T21:28:27.277Z,17.67
2023-02-16T21:30:55.471Z,17.27
2023-02-16T21:33:24.885Z,18.73
2023-02-16T21:35:52.889Z,17.87
2023-02-16T21:38:20.790Z,18.80
2023-02-16T21:41:06.212Z,22.07
2023-02-16T21:43:35.412Z,17.33
2023-02-16T21:46:03.763Z,18.47
2023-02-16T21:48:47.856Z,23.87
2023-02-16T21:51:16.358Z,19.30
2023-02-16T21:53:44.279Z,18.17
2023-02-16T21:56:17.666Z,16.10
2023-02-16T21:58:45.642Z,16.33
2023-02-16T22:01:14.068Z,18.57
2023-02-16T22:03:43.504Z,15.33
2023-02-16T22:06:11.902Z,21.07
2023-02-16T22:08:39.810Z,17.77
2023-02-16T22:11:08.893Z,19.80
2023-02-16T22:13:37.058Z,18.73
2023-02-16T22:16:10.352Z,20.07
2023-02-16T22:18:38.546Z,14.73
2023-02-16T22:21:08.388Z,17.47
2023-02-16T22:23:36.394Z,19.27
2023-02-16T22:26:05.186Z,24.30
2023-02-16T22:28:33.563Z,20.70
2023-02-16T22:31:06.909Z,16.77
2023-02-16T22:33:34.911Z,19.90
2023-02-16T22:36:10.065Z,21.53
2023-02-16T22:38:38.030Z,14.53
2023-02-16T22:41:07.017Z,15.17
2023-02-16T22:43:35.423Z,16.00
2023-02-16T22:46:06.249Z,18.77
2023-02-16T22:48:34.588Z,15.03
2023-02-16T22:51:03.100Z,15.30
2023-02-16T22:53:32.648Z,15.87
2023-02-16T22:56:00.773Z,21.53
2023-02-16T22:58:28.776Z,20.43
2023-02-16T23:00:56.888Z,15.13
2023-02-16T23:03:24.902Z,16.30
2023-02-16T23:05:52.848Z,16.33
2023-02-16T23:08:23.225Z,16.57
2023-02-16T23:11:01.182Z,13.60
2023-02-16T23:13:29.291Z,20.63
2023-02-16T23:15:57.287Z,17.67
2023-02-16T23:18:25.259Z,18.60
2023-02-16T23:20:53.201Z,16.83
2023-02-16T23:23:21.172Z,17.73
2023-02-16T23:25:49.729Z,15.27
2023-02-16T23:28:19.138Z,20.47
2023-02-16T23:30:47.915Z,15.97
2023-02-16T23:33:16.027Z,16.03
2023-02-16T23:35:44.021Z,14.03
2023-02-16T23:38:13.784Z,17.67
2023-02-16T23:40:41.861Z,15.57
2023-02-16T23:43:09.853Z,18.23
2023-02-16T23:45:39.459Z,15.63
2023-02-16T23:48:07.500Z,16.17
2023-02-16T23:50:35.417Z,17.87
2023-02-16T23:53:03.859Z,18.07
2023-02-16T23:55:31.755Z,17.27
2023-02-16T23:57:59.698Z,15.17
